sensor_id;sensor_type;location;lat;lon;timestamp;P1;durP1;ratioP1;P2;durP2;ratioP2
53833;SDS011;39735;51.432;5.482;2023-04-10T00:00:59;14.02;;;9.77;;
53833;SDS011;39735;51.432;5.482;2023-04-10T00:03:24;10.95;;;9.65;;
53833;SDS011;39735;51.432;5.482;2023-04-10T00:05:51;11.93;;;8.63;;
53833;SDS011;39735;51.432;5.482;2023-04-10T00:08:19;20.75;;;9.80;;
53833;SDS011;39735;51.432;5.482;2023-04-10T00:10:46;12.32;;;9.27;;
53833;SDS011;39735;51.432;5.482;2023-04-10T00:13:11;17.35;;;9.88;;
53833;SDS011;39735;51.432;5.482;2023-04-10T00:15:37;10.57;;;8.52;;
53833;SDS011;39735;51.432;5.482;2023-04-10T00:18:02;17.15;;;9.77;;
53833;SDS011;39735;51.432;5.482;2023-04-10T00:20:28;13.40;;;9.50;;
53833;SDS011;39735;51.432;5.482;2023-04-10T00:22:53;13.05;;;9.55;;
53833;SDS011;39735;51.432;5.482;2023-04-10T00:25:18;12.35;;;9.45;;
53833;SDS011;39735;51.432;5.482;2023-04-10T00:27:44;12.00;;;9.70;;
53833;SDS011;39735;51.432;5.482;2023-04-10T00:30:10;11.95;;;9.50;;
53833;SDS011;39735;51.432;5.482;2023-04-10T00:32:35;11.68;;;8.35;;
53833;SDS011;39735;51.432;5.482;2023-04-10T00:35:01;11.85;;;9.00;;
53833;SDS011;39735;51.432;5.482;2023-04-10T00:37:27;21.83;;;10.07;;
53833;SDS011;39735;51.432;5.482;2023-04-10T00:39:52;14.60;;;9.95;;
53833;SDS011;39735;51.432;5.482;2023-04-10T00:42:18;12.10;;;9.20;;
53833;SDS011;39735;51.432;5.482;2023-04-10T00:44:43;12.15;;;10.35;;
53833;SDS011;39735;51.432;5.482;2023-04-10T00:47:08;11.30;;;8.95;;
53833;SDS011;39735;51.432;5.482;2023-04-10T00:49:34;18.70;;;9.55;;
53833;SDS011;39735;51.432;5.482;2023-04-10T00:51:59;18.38;;;11.57;;
53833;SDS011;39735;51.432;5.482;2023-04-10T00:54:25;13.63;;;8.60;;
53833;SDS011;39735;51.432;5.482;2023-04-10T00:56:50;15.05;;;9.27;;
53833;SDS011;39735;51.432;5.482;2023-04-10T00:59:16;11.18;;;9.93;;
53833;SDS011;39735;51.432;5.482;2023-04-10T01:01:42;15.65;;;8.23;;
53833;SDS011;39735;51.432;5.482;2023-04-10T01:04:07;11.38;;;8.65;;
53833;SDS011;39735;51.432;5.482;2023-04-10T01:06:47;12.63;;;8.20;;
53833;SDS011;39735;51.432;5.482;2023-04-10T01:09:31;8.57;;;7.43;;
53833;SDS011;39735;51.432;5.482;2023-04-10T01:17:49;14.30;;;8.93;;
53833;SDS011;39735;51.432;5.482;2023-04-10T01:20:23;12.95;;;9.40;;
53833;SDS011;39735;51.432;5.482;2023-04-10T01:23:11;16.73;;;9.38;;
53833;SDS011;39735;51.432;5.482;2023-04-10T01:26:04;10.88;;;8.75;;
53833;SDS011;39735;51.432;5.482;2023-04-10T01:31:17;14.05;;;10.13;;
53833;SDS011;39735;51.432;5.482;2023-04-10T01:33:49;15.57;;;10.15;;
53833;SDS011;39735;51.432;5.482;2023-04-10T01:36:26;11.32;;;9.43;;
53833;SDS011;39735;51.432;5.482;2023-04-10T01:38:52;21.10;;;8.95;;
53833;SDS011;39735;51.432;5.482;2023-04-10T01:41:19;10.48;;;8.38;;
53833;SDS011;39735;51.432;5.482;2023-04-10T01:43:47;15.27;;;8.68;;
53833;SDS011;39735;51.432;5.482;2023-04-10T01:46:13;14.52;;;9.65;;
53833;SDS011;39735;51.432;5.482;2023-04-10T01:48:39;12.40;;;9.40;;
53833;SDS011;39735;51.432;5.482;2023-04-10T01:51:05;13.13;;;8.77;;
53833;SDS011;39735;51.432;5.482;2023-04-10T01:53:32;11.93;;;10.18;;
53833;SDS011;39735;51.432;5.482;2023-04-10T01:55:58;16.10;;;9.30;;
53833;SDS011;39735;51.432;5.482;2023-04-10T01:58:24;24.10;;;8.77;;
53833;SDS011;39735;51.432;5.482;2023-04-10T02:00:49;12.52;;;8.73;;
53833;SDS011;39735;51.432;5.482;2023-04-10T02:03:14;18.83;;;9.10;;
53833;SDS011;39735;51.432;5.482;2023-04-10T02:05:44;15.60;;;9.93;;
53833;SDS011;39735;51.432;5.482;2023-04-10T02:08:39;12.77;;;8.68;;
53833;SDS011;39735;51.432;5.482;2023-04-10T02:11:10;24.05;;;11.52;;
53833;SDS011;39735;51.432;5.482;2023-04-10T02:13:38;14.60;;;10.60;;
53833;SDS011;39735;51.432;5.482;2023-04-10T02:16:06;18.55;;;9.75;;
53833;SDS011;39735;51.432;5.482;2023-04-10T02:18:33;15.25;;;10.25;;
53833;SDS011;39735;51.432;5.482;2023-04-10T02:20:59;13.52;;;9.05;;
53833;SDS011;39735;51.432;5.482;2023-04-10T02:23:25;14.20;;;10.35;;
53833;SDS011;39735;51.432;5.482;2023-04-10T02:25:50;15.38;;;9.35;;
53833;SDS011;39735;51.432;5.482;2023-04-10T02:28:16;13.23;;;10.35;;
53833;SDS011;39735;51.432;5.482;2023-04-10T02:30:41;18.08;;;9.75;;
53833;SDS011;39735;51.432;5.482;2023-04-10T02:33:07;12.82;;;10.02;;
53833;SDS011;39735;51.432;5.482;2023-04-10T02:35:32;13.48;;;8.82;;
53833;SDS011;39735;51.432;5.482;2023-04-10T02:37:58;12.73;;;9.32;;
53833;SDS011;39735;51.432;5.482;2023-04-10T02:40:23;13.98;;;9.93;;
53833;SDS011;39735;51.432;5.482;2023-04-10T02:42:49;15.73;;;10.20;;
53833;SDS011;39735;51.432;5.482;2023-04-10T02:45:14;18.92;;;9.98;;
53833;SDS011;39735;51.432;5.482;2023-04-10T02:47:40;11.43;;;9.48;;
53833;SDS011;39735;51.432;5.482;2023-04-10T02:50:05;15.02;;;10.43;;
53833;SDS011;39735;51.432;5.482;2023-04-10T02:52:31;19.10;;;8.07;;
53833;SDS011;39735;51.432;5.482;2023-04-10T02:54:56;9.80;;;8.57;;
53833;SDS011;39735;51.432;5.482;2023-04-10T02:57:21;12.00;;;10.65;;
53833;SDS011;39735;51.432;5.482;2023-04-10T02:59:50;12.15;;;8.95;;
53833;SDS011;39735;51.432;5.482;2023-04-10T03:02:16;12.05;;;9.45;;
53833;SDS011;39735;51.432;5.482;2023-04-10T03:04:41;15.60;;;9.88;;
53833;SDS011;39735;51.432;5.482;2023-04-10T03:07:07;12.98;;;9.27;;
53833;SDS011;39735;51.432;5.482;2023-04-10T03:09:32;15.15;;;10.57;;
53833;SDS011;39735;51.432;5.482;2023-04-10T03:11:58;18.55;;;10.02;;
53833;SDS011;39735;51.432;5.482;2023-04-10T03:14:23;13.60;;;10.45;;
53833;SDS011;39735;51.432;5.482;2023-04-10T03:16:49;18.95;;;10.10;;
53833;SDS011;39735;51.432;5.482;2023-04-10T03:19:14;12.88;;;10.55;;
53833;SDS011;39735;51.432;5.482;2023-04-10T03:21:40;13.43;;;11.27;;
53833;SDS011;39735;51.432;5.482;2023-04-10T03:24:06;14.30;;;10.35;;
53833;SDS011;39735;51.432;5.482;2023-04-10T03:26:31;15.50;;;10.25;;
53833;SDS011;39735;51.432;5.482;2023-04-10T03:28:56;12.55;;;9.57;;
53833;SDS011;39735;51.432;5.482;2023-04-10T03:31:22;13.18;;;9.95;;
53833;SDS011;39735;51.432;5.482;2023-04-10T03:33:47;15.00;;;10.70;;
53833;SDS011;39735;51.432;5.482;2023-04-10T03:36:13;11.85;;;9.63;;
53833;SDS011;39735;51.432;5.482;2023-04-10T03:38:39;13.95;;;9.50;;
53833;SDS011;39735;51.432;5.482;2023-04-10T03:41:04;13.32;;;9.75;;
53833;SDS011;39735;51.432;5.482;2023-04-10T03:43:30;14.82;;;11.00;;
53833;SDS011;39735;51.432;5.482;2023-04-10T03:45:56;12.68;;;10.60;;
53833;SDS011;39735;51.432;5.482;2023-04-10T03:48:21;12.68;;;9.48;;
53833;SDS011;39735;51.432;5.482;2023-04-10T03:50:46;14.07;;;10.48;;
53833;SDS011;39735;51.432;5.482;2023-04-10T03:53:12;13.07;;;10.02;;
53833;SDS011;39735;51.432;5.482;2023-04-10T03:55:37;13.70;;;10.00;;
53833;SDS011;39735;51.432;5.482;2023-04-10T03:58:03;13.57;;;10.50;;
53833;SDS011;39735;51.432;5.482;2023-04-10T04:00:30;13.00;;;10.05;;
53833;SDS011;39735;51.432;5.482;2023-04-10T04:02:56;12.90;;;9.82;;
53833;SDS011;39735;51.432;5.482;2023-04-10T04:05:23;23.35;;;12.52;;
53833;SDS011;39735;51.432;5.482;2023-04-10T04:07:48;15.48;;;10.50;;
53833;SDS011;39735;51.432;5.482;2023-04-10T04:10:14;13.00;;;9.52;;
53833;SDS011;39735;51.432;5.482;2023-04-10T04:12:40;18.08;;;11.88;;
53833;SDS011;39735;51.432;5.482;2023-04-10T04:15:05;12.55;;;10.50;;
53833;SDS011;39735;51.432;5.482;2023-04-10T04:17:31;13.07;;;10.77;;
53833;SDS011;39735;51.432;5.482;2023-04-10T04:19:56;15.80;;;12.23;;
53833;SDS011;39735;51.432;5.482;2023-04-10T04:22:22;13.07;;;10.48;;
53833;SDS011;39735;51.432;5.482;2023-04-10T04:24:47;11.85;;;9.68;;
53833;SDS011;39735;51.432;5.482;2023-04-10T04:27:12;13.18;;;11.55;;
53833;SDS011;39735;51.432;5.482;2023-04-10T04:29:38;14.70;;;10.82;;
53833;SDS011;39735;51.432;5.482;2023-04-10T04:32:03;14.13;;;9.75;;
53833;SDS011;39735;51.432;5.482;2023-04-10T04:34:29;15.25;;;11.05;;
53833;SDS011;39735;51.432;5.482;2023-04-10T04:36:54;16.35;;;11.07;;
53833;SDS011;39735;51.432;5.482;2023-04-10T04:39:20;14.80;;;10.45;;
53833;SDS011;39735;51.432;5.482;2023-04-10T04:41:47;16.00;;;10.82;;
53833;SDS011;39735;51.432;5.482;2023-04-10T04:44:12;18.90;;;11.70;;
53833;SDS011;39735;51.432;5.482;2023-04-10T04:46:38;19.38;;;10.63;;
53833;SDS011;39735;51.432;5.482;2023-04-10T04:49:03;13.20;;;9.70;;
53833;SDS011;39735;51.432;5.482;2023-04-10T04:51:28;13.70;;;11.27;;
53833;SDS011;39735;51.432;5.482;2023-04-10T04:53:54;16.60;;;12.02;;
53833;SDS011;39735;51.432;5.482;2023-04-10T04:56:20;14.48;;;11.00;;
53833;SDS011;39735;51.432;5.482;2023-04-10T04:58:45;13.38;;;9.90;;
53833;SDS011;39735;51.432;5.482;2023-04-10T05:01:11;14.15;;;10.65;;
53833;SDS011;39735;51.432;5.482;2023-04-10T05:03:36;17.05;;;11.32;;
53833;SDS011;39735;51.432;5.482;2023-04-10T05:06:02;12.75;;;10.20;;
53833;SDS011;39735;51.432;5.482;2023-04-10T05:08:27;17.42;;;11.45;;
53833;SDS011;39735;51.432;5.482;2023-04-10T05:10:53;15.60;;;11.02;;
53833;SDS011;39735;51.432;5.482;2023-04-10T05:13:18;21.10;;;11.10;;
53833;SDS011;39735;51.432;5.482;2023-04-10T05:15:44;20.40;;;10.57;;
53833;SDS011;39735;51.432;5.482;2023-04-10T05:18:09;17.00;;;12.10;;
53833;SDS011;39735;51.432;5.482;2023-04-10T05:20:35;16.42;;;11.25;;
53833;SDS011;39735;51.432;5.482;2023-04-10T05:23:01;10.82;;;9.60;;
53833;SDS011;39735;51.432;5.482;2023-04-10T05:25:26;14.23;;;9.80;;
53833;SDS011;39735;51.432;5.482;2023-04-10T05:27:51;16.35;;;10.48;;
53833;SDS011;39735;51.432;5.482;2023-04-10T05:30:17;13.02;;;9.77;;
53833;SDS011;39735;51.432;5.482;2023-04-10T05:32:42;12.13;;;9.27;;
53833;SDS011;39735;51.432;5.482;2023-04-10T05:35:08;11.55;;;9.48;;
53833;SDS011;39735;51.432;5.482;2023-04-10T05:37:33;14.48;;;10.63;;
53833;SDS011;39735;51.432;5.482;2023-04-10T05:39:59;14.70;;;10.50;;
53833;SDS011;39735;51.432;5.482;2023-04-10T05:42:24;16.30;;;10.02;;
53833;SDS011;39735;51.432;5.482;2023-04-10T05:44:50;15.38;;;10.00;;
53833;SDS011;39735;51.432;5.482;2023-04-10T05:47:16;13.18;;;10.27;;
53833;SDS011;39735;51.432;5.482;2023-04-10T05:49:41;14.63;;;9.02;;
53833;SDS011;39735;51.432;5.482;2023-04-10T05:52:07;10.80;;;9.60;;
53833;SDS011;39735;51.432;5.482;2023-04-10T05:54:32;11.93;;;9.23;;
53833;SDS011;39735;51.432;5.482;2023-04-10T05:56:58;12.10;;;10.02;;
53833;SDS011;39735;51.432;5.482;2023-04-10T05:59:23;11.60;;;9.60;;
53833;SDS011;39735;51.432;5.482;2023-04-10T06:01:49;13.35;;;11.10;;
53833;SDS011;39735;51.432;5.482;2023-04-10T06:04:14;16.42;;;10.32;;
53833;SDS011;39735;51.432;5.482;2023-04-10T06:06:40;11.63;;;9.40;;
53833;SDS011;39735;51.432;5.482;2023-04-10T06:09:05;11.63;;;8.82;;
53833;SDS011;39735;51.432;5.482;2023-04-10T06:11:31;10.82;;;9.68;;
53833;SDS011;39735;51.432;5.482;2023-04-10T06:13:56;14.27;;;10.70;;
53833;SDS011;39735;51.432;5.482;2023-04-10T06:16:22;9.63;;;8.70;;
53833;SDS011;39735;51.432;5.482;2023-04-10T06:18:47;10.75;;;9.57;;
53833;SDS011;39735;51.432;5.482;2023-04-10T06:21:15;12.15;;;9.70;;
53833;SDS011;39735;51.432;5.482;2023-04-10T06:23:40;11.23;;;9.23;;
53833;SDS011;39735;51.432;5.482;2023-04-10T06:26:06;13.57;;;9.25;;
53833;SDS011;39735;51.432;5.482;2023-04-10T06:28:31;12.40;;;9.65;;
53833;SDS011;39735;51.432;5.482;2023-04-10T06:30:56;27.88;;;9.30;;
53833;SDS011;39735;51.432;5.482;2023-04-10T06:33:22;12.75;;;9.23;;
53833;SDS011;39735;51.432;5.482;2023-04-10T06:35:47;10.75;;;9.60;;
53833;SDS011;39735;51.432;5.482;2023-04-10T06:38:13;17.08;;;10.75;;
53833;SDS011;39735;51.432;5.482;2023-04-10T06:40:39;15.15;;;9.85;;
53833;SDS011;39735;51.432;5.482;2023-04-10T06:43:05;11.07;;;8.82;;
53833;SDS011;39735;51.432;5.482;2023-04-10T06:45:30;13.10;;;9.40;;
53833;SDS011;39735;51.432;5.482;2023-04-10T06:47:55;12.30;;;9.55;;
53833;SDS011;39735;51.432;5.482;2023-04-10T06:50:21;17.58;;;9.82;;
53833;SDS011;39735;51.432;5.482;2023-04-10T06:52:46;14.32;;;11.02;;
53833;SDS011;39735;51.432;5.482;2023-04-10T06:55:12;15.25;;;10.85;;
53833;SDS011;39735;51.432;5.482;2023-04-10T06:57:38;14.38;;;10.30;;
53833;SDS011;39735;51.432;5.482;2023-04-10T07:00:04;30.73;;;9.32;;
53833;SDS011;39735;51.432;5.482;2023-04-10T07:02:30;9.48;;;8.40;;
53833;SDS011;39735;51.432;5.482;2023-04-10T07:04:56;12.35;;;9.05;;
53833;SDS011;39735;51.432;5.482;2023-04-10T07:07:21;16.67;;;9.88;;
53833;SDS011;39735;51.432;5.482;2023-04-10T07:09:47;24.95;;;8.27;;
53833;SDS011;39735;51.432;5.482;2023-04-10T07:12:12;13.27;;;10.60;;
53833;SDS011;39735;51.432;5.482;2023-04-10T07:14:38;10.88;;;8.98;;
53833;SDS011;39735;51.432;5.482;2023-04-10T07:17:03;14.38;;;10.98;;
53833;SDS011;39735;51.432;5.482;2023-04-10T07:19:29;18.65;;;11.20;;
53833;SDS011;39735;51.432;5.482;2023-04-10T07:21:54;12.38;;;9.27;;
53833;SDS011;39735;51.432;5.482;2023-04-10T07:24:20;9.75;;;8.68;;
53833;SDS011;39735;51.432;5.482;2023-04-10T07:26:45;11.07;;;8.35;;
53833;SDS011;39735;51.432;5.482;2023-04-10T07:29:11;10.40;;;8.93;;
53833;SDS011;39735;51.432;5.482;2023-04-10T07:31:37;17.38;;;10.32;;
53833;SDS011;39735;51.432;5.482;2023-04-10T07:34:03;8.93;;;7.88;;
53833;SDS011;39735;51.432;5.482;2023-04-10T07:36:28;12.27;;;8.32;;
53833;SDS011;39735;51.432;5.482;2023-04-10T07:38:54;9.32;;;8.48;;
53833;SDS011;39735;51.432;5.482;2023-04-10T07:41:20;11.07;;;9.23;;
53833;SDS011;39735;51.432;5.482;2023-04-10T07:43:46;10.43;;;8.98;;
53833;SDS011;39735;51.432;5.482;2023-04-10T07:46:12;9.40;;;7.50;;
53833;SDS011;39735;51.432;5.482;2023-04-10T07:48:37;19.92;;;7.72;;
53833;SDS011;39735;51.432;5.482;2023-04-10T07:51:03;9.77;;;8.57;;
53833;SDS011;39735;51.432;5.482;2023-04-10T07:53:28;24.33;;;7.68;;
53833;SDS011;39735;51.432;5.482;2023-04-10T07:55:54;7.40;;;6.70;;
53833;SDS011;39735;51.432;5.482;2023-04-10T07:58:20;11.00;;;8.02;;
53833;SDS011;39735;51.432;5.482;2023-04-10T08:00:45;10.73;;;7.55;;
53833;SDS011;39735;51.432;5.482;2023-04-10T08:03:11;6.07;;;5.60;;
53833;SDS011;39735;51.432;5.482;2023-04-10T08:05:39;10.02;;;7.05;;
53833;SDS011;39735;51.432;5.482;2023-04-10T08:08:05;9.85;;;7.85;;
53833;SDS011;39735;51.432;5.482;2023-04-10T08:10:30;9.18;;;7.03;;
53833;SDS011;39735;51.432;5.482;2023-04-10T08:12:56;10.27;;;8.38;;
53833;SDS011;39735;51.432;5.482;2023-04-10T08:15:21;9.48;;;7.35;;
53833;SDS011;39735;51.432;5.482;2023-04-10T08:17:46;7.43;;;6.60;;
53833;SDS011;39735;51.432;5.482;2023-04-10T08:20:12;10.15;;;7.93;;
53833;SDS011;39735;51.432;5.482;2023-04-10T08:22:37;12.63;;;8.80;;
53833;SDS011;39735;51.432;5.482;2023-04-10T08:25:03;12.63;;;9.05;;
53833;SDS011;39735;51.432;5.482;2023-04-10T08:27:29;10.23;;;7.95;;
53833;SDS011;39735;51.432;5.482;2023-04-10T08:29:54;8.30;;;7.45;;
53833;SDS011;39735;51.432;5.482;2023-04-10T08:32:20;11.45;;;8.00;;
53833;SDS011;39735;51.432;5.482;2023-04-10T08:34:46;8.38;;;7.53;;
53833;SDS011;39735;51.432;5.482;2023-04-10T08:37:11;10.98;;;8.05;;
53833;SDS011;39735;51.432;5.482;2023-04-10T08:39:39;8.32;;;6.43;;
53833;SDS011;39735;51.432;5.482;2023-04-10T08:42:05;9.20;;;8.13;;
53833;SDS011;39735;51.432;5.482;2023-04-10T08:44:31;10.45;;;7.70;;
53833;SDS011;39735;51.432;5.482;2023-04-10T08:46:59;7.95;;;6.55;;
53833;SDS011;39735;51.432;5.482;2023-04-10T08:49:44;13.48;;;7.60;;
53833;SDS011;39735;51.432;5.482;2023-04-10T08:52:21;24.20;;;7.90;;
53833;SDS011;39735;51.432;5.482;2023-04-10T08:54:49;7.78;;;6.55;;
53833;SDS011;39735;51.432;5.482;2023-04-10T08:57:17;9.10;;;8.10;;
53833;SDS011;39735;51.432;5.482;2023-04-10T08:59:48;10.32;;;8.38;;
53833;SDS011;39735;51.432;5.482;2023-04-10T09:02:15;8.32;;;7.30;;
53833;SDS011;39735;51.432;5.482;2023-04-10T09:04:48;8.95;;;7.93;;
53833;SDS011;39735;51.432;5.482;2023-04-10T09:07:15;6.65;;;6.00;;
53833;SDS011;39735;51.432;5.482;2023-04-10T09:09:41;7.28;;;6.68;;
53833;SDS011;39735;51.432;5.482;2023-04-10T09:12:07;6.63;;;5.97;;
53833;SDS011;39735;51.432;5.482;2023-04-10T09:14:33;7.93;;;6.57;;
53833;SDS011;39735;51.432;5.482;2023-04-10T09:17:10;7.20;;;6.50;;
53833;SDS011;39735;51.432;5.482;2023-04-10T09:19:40;11.82;;;6.55;;
53833;SDS011;39735;51.432;5.482;2023-04-10T09:22:07;9.65;;;6.35;;
53833;SDS011;39735;51.432;5.482;2023-04-10T09:24:40;8.27;;;6.82;;
53833;SDS011;39735;51.432;5.482;2023-04-10T09:27:07;14.32;;;6.95;;
53833;SDS011;39735;51.432;5.482;2023-04-10T09:32:06;8.73;;;6.90;;
53833;SDS011;39735;51.432;5.482;2023-04-10T09:34:31;11.90;;;7.35;;
53833;SDS011;39735;51.432;5.482;2023-04-10T09:36:57;6.70;;;5.80;;
53833;SDS011;39735;51.432;5.482;2023-04-10T09:39:34;7.90;;;6.90;;
53833;SDS011;39735;51.432;5.482;2023-04-10T09:42:02;7.32;;;6.05;;
53833;SDS011;39735;51.432;5.482;2023-04-10T09:44:29;7.30;;;6.55;;
53833;SDS011;39735;51.432;5.482;2023-04-10T09:46:56;8.32;;;6.40;;
53833;SDS011;39735;51.432;5.482;2023-04-10T09:49:22;7.75;;;5.90;;
53833;SDS011;39735;51.432;5.482;2023-04-10T09:51:47;11.60;;;5.97;;
53833;SDS011;39735;51.432;5.482;2023-04-10T09:54:13;6.60;;;5.60;;
53833;SDS011;39735;51.432;5.482;2023-04-10T09:56:39;5.90;;;5.32;;
53833;SDS011;39735;51.432;5.482;2023-04-10T09:59:06;6.50;;;5.90;;
53833;SDS011;39735;51.432;5.482;2023-04-10T10:01:32;9.73;;;7.22;;
53833;SDS011;39735;51.432;5.482;2023-04-10T10:04:02;6.78;;;5.10;;
53833;SDS011;39735;51.432;5.482;2023-04-10T10:06:32;6.00;;;5.43;;
53833;SDS011;39735;51.432;5.482;2023-04-10T10:09:01;7.30;;;5.57;;
53833;SDS011;39735;51.432;5.482;2023-04-10T10:11:27;8.55;;;4.68;;
53833;SDS011;39735;51.432;5.482;2023-04-10T10:13:55;4.50;;;4.18;;
53833;SDS011;39735;51.432;5.482;2023-04-10T10:16:38;5.88;;;4.80;;
53833;SDS011;39735;51.432;5.482;2023-04-10T10:19:17;5.43;;;3.72;;
53833;SDS011;39735;51.432;5.482;2023-04-10T10:21:51;4.85;;;4.22;;
53833;SDS011;39735;51.432;5.482;2023-04-10T10:24:18;4.15;;;3.35;;
53833;SDS011;39735;51.432;5.482;2023-04-10T10:26:44;5.80;;;4.15;;
53833;SDS011;39735;51.432;5.482;2023-04-10T10:29:11;5.07;;;4.57;;
53833;SDS011;39735;51.432;5.482;2023-04-10T10:31:39;4.85;;;4.55;;
53833;SDS011;39735;51.432;5.482;2023-04-10T10:34:04;3.35;;;3.15;;
53833;SDS011;39735;51.432;5.482;2023-04-10T10:36:36;4.05;;;3.63;;
53833;SDS011;39735;51.432;5.482;2023-04-10T10:41:53;5.20;;;4.70;;
53833;SDS011;39735;51.432;5.482;2023-04-10T10:45:07;4.95;;;4.15;;
53833;SDS011;39735;51.432;5.482;2023-04-10T10:47:31;5.15;;;3.42;;
53833;SDS011;39735;51.432;5.482;2023-04-10T10:57:54;4.07;;;3.67;;
53833;SDS011;39735;51.432;5.482;2023-04-10T11:00:24;7.68;;;3.78;;
53833;SDS011;39735;51.432;5.482;2023-04-10T11:06:05;3.38;;;3.08;;
53833;SDS011;39735;51.432;5.482;2023-04-10T11:11:03;4.53;;;4.13;;
53833;SDS011;39735;51.432;5.482;2023-04-10T11:13:33;3.07;;;2.87;;
53833;SDS011;39735;51.432;5.482;2023-04-10T11:16:00;3.58;;;3.38;;
53833;SDS011;39735;51.432;5.482;2023-04-10T11:21:17;4.97;;;3.60;;
53833;SDS011;39735;51.432;5.482;2023-04-10T11:26:36;3.47;;;3.17;;
53833;SDS011;39735;51.432;5.482;2023-04-10T11:31:30;4.50;;;2.92;;
53833;SDS011;39735;51.432;5.482;2023-04-10T11:36:23;4.40;;;3.45;;
53833;SDS011;39735;51.432;5.482;2023-04-10T11:38:55;3.53;;;3.22;;
53833;SDS011;39735;51.432;5.482;2023-04-10T11:43:55;4.60;;;3.13;;
53833;SDS011;39735;51.432;5.482;2023-04-10T11:46:23;3.03;;;2.83;;
53833;SDS011;39735;51.432;5.482;2023-04-10T11:48:59;9.93;;;3.15;;
53833;SDS011;39735;51.432;5.482;2023-04-10T11:51:26;4.10;;;3.28;;
53833;SDS011;39735;51.432;5.482;2023-04-10T11:56:33;2.75;;;2.65;;
53833;SDS011;39735;51.432;5.482;2023-04-10T11:58:59;3.28;;;2.97;;
53833;SDS011;39735;51.432;5.482;2023-04-10T12:01:26;12.40;;;4.70;;
53833;SDS011;39735;51.432;5.482;2023-04-10T12:03:52;6.05;;;3.03;;
53833;SDS011;39735;51.432;5.482;2023-04-10T12:06:17;10.60;;;3.78;;
53833;SDS011;39735;51.432;5.482;2023-04-10T12:08:47;15.52;;;5.07;;
53833;SDS011;39735;51.432;5.482;2023-04-10T12:11:19;3.95;;;3.17;;
53833;SDS011;39735;51.432;5.482;2023-04-10T12:13:45;3.65;;;2.47;;
53833;SDS011;39735;51.432;5.482;2023-04-10T12:16:12;3.08;;;2.65;;
53833;SDS011;39735;51.432;5.482;2023-04-10T12:18:38;7.75;;;2.65;;
53833;SDS011;39735;51.432;5.482;2023-04-10T12:21:04;3.10;;;2.92;;
53833;SDS011;39735;51.432;5.482;2023-04-10T12:23:30;3.30;;;3.00;;
53833;SDS011;39735;51.432;5.482;2023-04-10T12:26:06;3.20;;;3.00;;
53833;SDS011;39735;51.432;5.482;2023-04-10T12:28:34;2.50;;;2.35;;
53833;SDS011;39735;51.432;5.482;2023-04-10T12:31:01;3.58;;;3.30;;
53833;SDS011;39735;51.432;5.482;2023-04-10T12:33:27;4.03;;;2.72;;
53833;SDS011;39735;51.432;5.482;2023-04-10T12:35:53;4.40;;;3.10;;
53833;SDS011;39735;51.432;5.482;2023-04-10T12:41:03;4.70;;;2.90;;
53833;SDS011;39735;51.432;5.482;2023-04-10T12:43:40;3.35;;;2.95;;
53833;SDS011;39735;51.432;5.482;2023-04-10T12:46:07;9.18;;;3.17;;
53833;SDS011;39735;51.432;5.482;2023-04-10T12:48:33;2.40;;;2.30;;
53833;SDS011;39735;51.432;5.482;2023-04-10T12:50:59;2.97;;;2.78;;
53833;SDS011;39735;51.432;5.482;2023-04-10T12:53:25;3.03;;;2.83;;
53833;SDS011;39735;51.432;5.482;2023-04-10T12:55:59;3.83;;;3.03;;
53833;SDS011;39735;51.432;5.482;2023-04-10T12:58:26;3.33;;;3.00;;
53833;SDS011;39735;51.432;5.482;2023-04-10T13:00:52;4.28;;;2.45;;
53833;SDS011;39735;51.432;5.482;2023-04-10T13:03:21;3.53;;;3.22;;
53833;SDS011;39735;51.432;5.482;2023-04-10T13:05:47;4.05;;;2.83;;
53833;SDS011;39735;51.432;5.482;2023-04-10T13:08:13;12.38;;;2.53;;
53833;SDS011;39735;51.432;5.482;2023-04-10T13:10:38;2.30;;;2.08;;
53833;SDS011;39735;51.432;5.482;2023-04-10T13:13:06;8.88;;;2.22;;
53833;SDS011;39735;51.432;5.482;2023-04-10T13:15:32;3.00;;;2.30;;
53833;SDS011;39735;51.432;5.482;2023-04-10T13:18:00;3.03;;;1.98;;
53833;SDS011;39735;51.432;5.482;2023-04-10T13:20:26;2.70;;;2.60;;
53833;SDS011;39735;51.432;5.482;2023-04-10T13:22:51;3.85;;;2.38;;
53833;SDS011;39735;51.432;5.482;2023-04-10T13:25:17;9.82;;;2.17;;
53833;SDS011;39735;51.432;5.482;2023-04-10T13:27:42;6.85;;;1.65;;
53833;SDS011;39735;51.432;5.482;2023-04-10T13:30:08;2.28;;;1.98;;
53833;SDS011;39735;51.432;5.482;2023-04-10T13:32:33;3.20;;;2.30;;
53833;SDS011;39735;51.432;5.482;2023-04-10T13:34:59;2.63;;;2.42;;
53833;SDS011;39735;51.432;5.482;2023-04-10T13:37:24;9.90;;;2.38;;
53833;SDS011;39735;51.432;5.482;2023-04-10T13:39:50;3.13;;;2.38;;
53833;SDS011;39735;51.432;5.482;2023-04-10T13:42:16;4.13;;;1.77;;
53833;SDS011;39735;51.432;5.482;2023-04-10T13:44:41;2.08;;;2.03;;
53833;SDS011;39735;51.432;5.482;2023-04-10T13:47:07;1.95;;;1.85;;
53833;SDS011;39735;51.432;5.482;2023-04-10T13:49:32;4.30;;;2.95;;
53833;SDS011;39735;51.432;5.482;2023-04-10T13:51:57;6.40;;;5.25;;
53833;SDS011;39735;51.432;5.482;2023-04-10T13:54:23;2.75;;;1.92;;
53833;SDS011;39735;51.432;5.482;2023-04-10T13:56:48;4.10;;;2.42;;
53833;SDS011;39735;51.432;5.482;2023-04-10T13:59:14;8.38;;;1.95;;
53833;SDS011;39735;51.432;5.482;2023-04-10T14:01:40;2.45;;;2.30;;
53833;SDS011;39735;51.432;5.482;2023-04-10T14:04:05;2.17;;;2.08;;
53833;SDS011;39735;51.432;5.482;2023-04-10T14:06:31;2.70;;;2.50;;
53833;SDS011;39735;51.432;5.482;2023-04-10T14:08:56;2.47;;;2.25;;
53833;SDS011;39735;51.432;5.482;2023-04-10T14:11:22;2.17;;;1.63;;
53833;SDS011;39735;51.432;5.482;2023-04-10T14:13:47;4.45;;;2.20;;
53833;SDS011;39735;51.432;5.482;2023-04-10T14:16:13;8.15;;;1.90;;
53833;SDS011;39735;51.432;5.482;2023-04-10T14:18:38;1.88;;;1.33;;
53833;SDS011;39735;51.432;5.482;2023-04-10T14:21:04;2.22;;;2.08;;
53833;SDS011;39735;51.432;5.482;2023-04-10T14:23:29;4.75;;;2.60;;
53833;SDS011;39735;51.432;5.482;2023-04-10T14:25:55;2.40;;;2.20;;
53833;SDS011;39735;51.432;5.482;2023-04-10T14:28:21;2.70;;;2.60;;
53833;SDS011;39735;51.432;5.482;2023-04-10T14:30:46;2.08;;;1.98;;
53833;SDS011;39735;51.432;5.482;2023-04-10T14:33:13;2.88;;;2.25;;
53833;SDS011;39735;51.432;5.482;2023-04-10T14:35:39;2.20;;;2.10;;
53833;SDS011;39735;51.432;5.482;2023-04-10T14:38:04;5.25;;;2.35;;
53833;SDS011;39735;51.432;5.482;2023-04-10T14:40:30;5.05;;;1.67;;
53833;SDS011;39735;51.432;5.482;2023-04-10T14:42:55;1.67;;;1.63;;
53833;SDS011;39735;51.432;5.482;2023-04-10T14:45:21;2.47;;;2.00;;
53833;SDS011;39735;51.432;5.482;2023-04-10T14:47:46;3.92;;;2.25;;
53833;SDS011;39735;51.432;5.482;2023-04-10T14:50:12;3.95;;;3.67;;
53833;SDS011;39735;51.432;5.482;2023-04-10T14:52:37;1.45;;;1.45;;
53833;SDS011;39735;51.432;5.482;2023-04-10T14:55:03;2.28;;;2.10;;
53833;SDS011;39735;51.432;5.482;2023-04-10T14:57:28;2.20;;;2.10;;
53833;SDS011;39735;51.432;5.482;2023-04-10T14:59:54;2.95;;;2.45;;
53833;SDS011;39735;51.432;5.482;2023-04-10T15:02:20;1.92;;;1.52;;
53833;SDS011;39735;51.432;5.482;2023-04-10T15:04:45;2.38;;;2.28;;
53833;SDS011;39735;51.432;5.482;2023-04-10T15:07:12;3.08;;;2.15;;
53833;SDS011;39735;51.432;5.482;2023-04-10T15:09:37;2.58;;;2.47;;
53833;SDS011;39735;51.432;5.482;2023-04-10T15:12:03;2.58;;;2.38;;
53833;SDS011;39735;51.432;5.482;2023-04-10T15:14:28;2.58;;;2.38;;
53833;SDS011;39735;51.432;5.482;2023-04-10T15:16:54;2.50;;;2.30;;
53833;SDS011;39735;51.432;5.482;2023-04-10T15:19:20;2.55;;;2.35;;
53833;SDS011;39735;51.432;5.482;2023-04-10T15:21:45;4.57;;;2.28;;